createdAt,value
2022-09-28T06:19:56.490Z,97630.65
2022-09-28T06:22:34.377Z,97631.47
2022-09-28T06:25:11.295Z,97621.02
2022-09-28T06:27:44.794Z,97620.08
2022-09-28T06:30:17.804Z,97619.20
2022-09-28T06:32:52.294Z,97617.39
2022-09-28T06:35:26.256Z,97616.27
2022-09-28T06:37:59.918Z,97614.33
2022-09-28T06:40:33.187Z,97618.41
2022-09-28T06:43:10.643Z,97613.77
2022-09-28T06:46:05.074Z,97614.47
2022-09-28T06:48:50.085Z,97614.33
2022-09-28T06:51:25.993Z,97612.39
2022-09-28T06:54:06.500Z,97613.94
2022-09-28T06:56:43.955Z,97613.66
2022-09-28T06:59:17.243Z,97613.66
2022-09-28T07:01:51.097Z,97619.77
2022-09-28T07:04:28.729Z,97613.74
2022-09-28T07:07:19.387Z,97617.20
2022-09-28T07:09:56.777Z,97612.87
2022-09-28T07:12:49.495Z,97612.94
2022-09-28T07:15:30.327Z,97606.25
2022-09-28T07:18:05.473Z,97610.70
2022-09-28T07:20:51.330Z,97607.20
2022-09-28T07:23:18.905Z,97611.40
2022-09-28T07:25:50.352Z,97601.69
2022-09-28T07:28:38.544Z,97599.84
2022-09-28T07:31:22.336Z,97601.69
2022-09-28T07:33:56.899Z,97595.55
2022-09-28T07:36:39.288Z,97601.48
2022-09-28T07:39:12.568Z,97601.95
2022-09-28T07:41:45.780Z,97593.91
2022-09-28T07:44:22.847Z,97591.05
2022-09-28T07:46:57.785Z,97595.93
2022-09-28T07:49:34.038Z,97588.54
2022-09-28T07:52:26.346Z,97589.67
2022-09-28T07:55:19.237Z,97592.43
2022-09-28T07:58:03.113Z,97594.02
2022-09-28T08:00:38.539Z,97588.41
2022-09-28T08:03:11.477Z,97578.92
2022-09-28T08:05:46.281Z,97579.67
2022-09-28T08:08:20.463Z,97582.83
2022-09-28T08:13:31.903Z,97578.83
2022-09-28T08:16:16.029Z,97574.22
2022-09-28T08:18:59.570Z,97582.96
2022-09-28T08:21:47.513Z,97575.94
2022-09-28T08:24:21.063Z,97574.31
2022-09-28T08:26:55.760Z,97573.45
2022-09-28T08:29:32.095Z,97569.86
2022-09-28T08:32:10.650Z,97568.82
2022-09-28T08:34:55.631Z,97573.27
2022-09-28T08:37:39.215Z,97575.09
2022-09-28T08:40:31.335Z,97574.05
2022-09-28T08:43:08.605Z,97571.30
2022-09-28T08:45:55.544Z,97567.61
2022-09-28T08:48:56.368Z,97561.95
2022-09-28T08:51:27.543Z,97555.53
2022-09-28T08:54:23.654Z,97553.91
2022-09-28T08:57:04.906Z,97552.95
2022-09-28T08:59:42.168Z,97562.24
2022-09-28T09:02:26.234Z,97562.18
2022-09-28T09:05:06.448Z,97549.98
2022-09-28T09:10:51.473Z,97560.75
2022-09-28T09:13:51.876Z,97560.14
2022-09-28T09:16:33.288Z,97565.26
2022-09-28T09:19:13.241Z,97561.59
2022-09-28T09:21:52.958Z,97565.84
2022-09-28T09:24:29.196Z,97573.62
2022-09-28T09:27:11.787Z,97567.45
2022-09-28T09:29:57.446Z,97571.48
2022-09-28T09:32:40.584Z,97567.69
2022-09-28T09:35:56.420Z,97569.14
2022-09-28T09:38:45.403Z,97560.13
2022-09-28T09:41:47.743Z,97553.91
2022-09-28T09:44:54.319Z,97556.24
2022-09-28T09:50:15.612Z,97544.55
2022-09-28T09:52:54.634Z,97554.22
2022-09-28T09:55:36.022Z,97556.66
2022-09-28T09:58:31.063Z,97560.29
2022-09-28T10:01:17.270Z,97564.91
2022-09-28T10:04:02.342Z,97561.03
2022-09-28T10:06:38.595Z,97557.02
2022-09-28T10:09:17.162Z,97562.52
2022-09-28T10:11:52.194Z,97567.57
2022-09-28T10:14:27.217Z,97560.53
2022-09-28T10:17:08.364Z,97566.85
2022-09-28T10:19:59.041Z,97561.95
2022-09-28T10:22:51.301Z,97562.72
2022-09-28T10:25:24.723Z,97564.05
2022-09-28T10:27:59.584Z,97559.55
2022-09-28T10:30:35.315Z,97561.17
2022-09-28T10:33:11.399Z,97559.44
2022-09-28T10:35:46.834Z,97567.50
2022-09-28T10:38:22.437Z,97569.59
2022-09-28T10:40:59.366Z,97566.89
2022-09-28T10:43:58.184Z,97566.77
2022-09-28T10:46:31.279Z,97568.98
2022-09-28T10:49:07.006Z,97573.85
2022-09-28T10:51:45.175Z,97569.00
2022-09-28T10:54:21.974Z,97565.66
2022-09-28T10:56:57.625Z,97570.00
2022-09-28T10:59:43.039Z,97570.16
2022-09-28T11:02:33.505Z,97573.80
2022-09-28T11:05:08.612Z,97564.50
2022-09-28T11:07:49.434Z,97562.17
2022-09-28T11:10:26.344Z,97558.14
2022-09-28T11:13:13.278Z,97560.80
2022-09-28T11:15:53.440Z,97558.98
2022-09-28T11:18:32.558Z,97560.72
2022-09-28T11:21:17.490Z,97559.74
2022-09-28T11:24:09.650Z,97557.17
2022-09-28T11:26:46.953Z,97556.59
2022-09-28T11:29:36.131Z,97571.52
2022-09-28T11:32:29.898Z,97567.23
2022-09-28T11:35:22.822Z,97570.01
2022-09-28T11:38:31.426Z,97577.14
2022-09-28T11:41:21.256Z,97567.73
2022-09-28T11:44:34.463Z,97574.64
2022-09-28T11:47:22.418Z,97571.91
2022-09-28T11:49:59.109Z,97575.16
2022-09-28T11:52:35.577Z,97566.25
2022-09-28T11:55:13.379Z,97576.13
2022-09-28T11:57:52.290Z,97575.56
2022-09-28T12:00:25.864Z,97571.48
2022-09-28T12:05:47.716Z,97566.41
2022-09-28T12:08:27.533Z,97568.98
2022-09-28T12:11:15.645Z,97571.06
2022-09-28T12:14:09.040Z,97569.91
2022-09-28T12:17:04.678Z,97567.91
2022-09-28T12:19:22.658Z,97565.69
2022-09-28T12:21:58.771Z,97567.91
2022-09-28T12:24:36.572Z,97571.20
2022-09-28T12:27:14.606Z,97571.73
2022-09-28T12:29:51.313Z,97569.11
2022-09-28T12:32:29.512Z,97569.34
2022-09-28T12:35:02.947Z,97576.17
2022-09-28T12:37:42.888Z,97579.40
2022-09-28T12:43:54.789Z,97578.09
2022-09-28T12:46:38.667Z,97579.45
2022-09-28T12:50:27.247Z,97575.27
2022-09-28T12:52:10.797Z,97587.63
2022-09-28T12:54:58.070Z,97581.75
2022-09-28T12:57:41.123Z,97593.06
2022-09-28T13:00:17.354Z,97587.67
2022-09-28T13:03:08.446Z,97577.05
2022-09-28T13:09:31.423Z,97581.12
2022-09-28T13:12:14.367Z,97586.16
2022-09-28T13:15:27.582Z,97578.78
2022-09-28T13:20:51.641Z,97579.25
2022-09-28T13:23:28.049Z,97583.26
2022-09-28T13:26:04.589Z,97574.66
2022-09-28T13:28:41.947Z,97572.94
2022-09-28T13:31:16.711Z,97577.23
2022-09-28T13:33:51.226Z,97584.15
2022-09-28T13:36:47.840Z,97580.73
2022-09-28T13:39:38.681Z,97587.83
2022-09-28T13:42:13.660Z,97589.69
2022-09-28T13:48:08.815Z,97560.89
2022-09-28T13:51:17.352Z,97580.30
2022-09-28T13:57:14.316Z,97587.12
2022-09-28T13:59:53.958Z,97584.93
2022-09-28T14:02:32.770Z,97581.48
2022-09-28T14:05:10.261Z,97582.45
2022-09-28T14:08:01.926Z,97585.14
2022-09-28T14:11:22.809Z,97576.50
2022-09-28T14:14:03.557Z,97577.47
2022-09-28T14:16:40.148Z,97580.89
2022-09-28T14:19:16.012Z,97579.96
2022-09-28T14:22:06.843Z,97591.25
2022-09-28T14:24:59.317Z,97591.20
2022-09-28T14:31:32.279Z,97589.31
2022-09-28T14:34:07.631Z,97595.76
2022-09-28T14:37:01.102Z,97608.89
2022-09-28T14:39:57.151Z,97608.05
2022-09-28T14:42:30.546Z,97612.39
2022-09-28T14:45:29.800Z,97612.47
2022-09-28T14:48:23.111Z,97614.16
2022-09-28T14:50:57.390Z,97619.47
2022-09-28T14:53:33.317Z,97622.19
2022-09-28T14:56:09.306Z,97620.50
2022-09-28T14:58:43.583Z,97623.11
2022-09-28T15:01:20.281Z,97620.54
2022-09-28T15:03:56.634Z,97622.23
2022-09-28T15:06:30.909Z,97628.34
2022-09-28T15:09:06.096Z,97637.09
2022-09-28T15:11:43.161Z,97642.34
2022-09-28T15:14:16.829Z,97651.06
2022-09-28T15:16:50.149Z,97659.78
2022-09-28T15:22:16.888Z,97662.17
2022-09-28T15:25:02.047Z,97663.28
2022-09-28T15:27:38.418Z,97660.73
2022-09-28T15:33:45.013Z,97669.20
2022-09-28T15:36:21.991Z,97679.02
2022-09-28T15:39:01.998Z,97679.90
2022-09-28T15:41:35.921Z,97685.97
2022-09-28T15:44:29.765Z,97691.19
2022-09-28T15:47:13.719Z,97690.34
2022-09-28T15:49:50.830Z,97684.24
2022-09-28T15:52:38.485Z,97693.03
2022-09-28T15:55:23.201Z,97700.05
2022-09-28T15:58:18.461Z,97698.31
2022-09-28T16:00:54.720Z,97693.91
2022-09-28T16:03:31.328Z,97698.25
2022-09-28T16:06:12.138Z,97697.41
2022-09-28T16:08:48.363Z,97697.44
2022-09-28T16:11:26.484Z,97695.78
2022-09-28T16:14:08.568Z,97696.69
2022-09-28T16:16:47.030Z,97699.30
2022-09-28T16:22:07.556Z,97693.88
2022-09-28T16:24:41.932Z,97698.48
2022-09-28T16:27:28.811Z,97696.77
2022-09-28T16:30:19.070Z,97692.39
2022-09-28T16:32:58.334Z,97694.11
2022-09-28T16:35:33.524Z,97686.31
2022-09-28T16:38:12.866Z,97692.48
2022-09-28T16:40:48.226Z,97689.00
2022-09-28T16:43:26.817Z,97701.13
2022-09-28T16:46:02.707Z,97693.23
2022-09-28T16:48:39.686Z,97688.93
2022-09-28T16:51:12.908Z,97692.45
2022-09-28T16:54:05.820Z,97692.52
2022-09-28T16:56:42.994Z,97695.13
2022-09-28T16:59:30.946Z,97695.27
2022-09-28T17:02:14.758Z,97703.12
2022-09-28T17:04:47.826Z,97698.85
2022-09-28T17:07:22.270Z,97706.74
2022-09-28T17:09:56.336Z,97698.03
2022-09-28T17:12:34.299Z,97692.81
2022-09-28T17:15:06.472Z,97699.83
2022-09-28T17:17:39.279Z,97708.38
2022-09-28T17:20:22.968Z,97710.23
2022-09-28T17:23:03.768Z,97709.38
2022-09-28T17:25:37.595Z,97707.69
2022-09-28T17:28:15.744Z,97713.78
2022-09-28T17:30:50.868Z,97719.03
2022-09-28T17:33:28.277Z,97726.01
2022-09-28T17:36:05.224Z,97727.73
2022-09-28T17:38:42.062Z,97729.47
2022-09-28T17:41:20.397Z,97726.08
2022-09-28T17:43:52.080Z,97719.12
2022-09-28T17:46:29.927Z,97724.38
2022-09-28T17:49:03.093Z,97726.07
2022-09-28T17:51:38.468Z,97725.95
2022-09-28T17:54:13.114Z,97725.19
2022-09-28T17:56:46.313Z,97725.25
2022-09-28T17:59:22.214Z,97721.77
2022-09-28T18:01:57.517Z,97716.58
2022-09-28T18:04:50.671Z,97721.80
2022-09-28T18:07:08.423Z,97717.45
2022-09-28T18:09:41.649Z,97724.44
2022-09-28T18:12:14.682Z,97730.50
2022-09-28T18:14:49.998Z,97725.34
2022-09-28T18:17:24.518Z,97728.83
2022-09-28T18:19:57.643Z,97729.70
2022-09-28T18:22:30.595Z,97729.70
2022-09-28T18:25:06.264Z,97736.68
2022-09-28T18:27:44.207Z,97721.94
2022-09-28T18:30:17.144Z,97739.32
2022-09-28T18:32:50.224Z,97727.09
2022-09-28T18:35:26.212Z,97727.95
2022-09-28T18:37:59.179Z,97730.56
2022-09-28T18:40:33.009Z,97725.34
2022-09-28T18:43:07.717Z,97725.34
2022-09-28T18:45:42.333Z,97715.78
2022-09-28T18:48:15.115Z,97719.25
2022-09-28T18:50:48.159Z,97721.83
2022-09-28T18:53:23.858Z,97718.30
2022-09-28T18:55:58.939Z,97718.28
2022-09-28T18:58:33.334Z,97718.37
2022-09-28T19:01:31.520Z,97717.52
2022-09-28T19:03:46.898Z,97714.97
2022-09-28T19:06:20.105Z,97721.94
2022-09-28T19:08:56.369Z,97727.22
2022-09-28T19:11:29.806Z,97726.34
2022-09-28T19:14:03.829Z,97724.64
2022-09-28T19:16:41.956Z,97736.80
2022-09-28T19:19:16.663Z,97729.03
2022-09-28T19:21:50.325Z,97716.13
2022-09-28T19:24:23.474Z,97730.81
2022-09-28T19:26:56.737Z,97729.99
2022-09-28T19:29:29.920Z,97726.54
2022-09-28T19:32:03.119Z,97723.95
2022-09-28T19:34:36.105Z,97728.32
2022-09-28T19:37:10.953Z,97723.98
2022-09-28T19:39:46.127Z,97724.92
2022-09-28T19:42:19.142Z,97720.58
2022-09-28T19:44:52.522Z,97726.67
2022-09-28T19:47:25.693Z,97731.01
2022-09-28T19:49:58.613Z,97741.49
2022-09-28T19:52:31.762Z,97742.31
2022-09-28T19:55:04.894Z,97745.86
2022-09-28T19:57:37.853Z,97743.22
2022-09-28T20:00:13.507Z,97757.13
2022-09-28T20:02:46.509Z,97751.92
2022-09-28T20:05:19.519Z,97754.50
2022-09-28T20:07:52.469Z,97752.83
2022-09-28T20:10:25.365Z,97762.38
2022-09-28T20:12:59.104Z,97761.49
2022-09-28T20:15:32.199Z,97764.95
2022-09-28T20:18:05.328Z,97765.01
2022-09-28T20:20:38.265Z,97766.73
2022-09-28T20:23:11.802Z,97766.73
2022-09-28T20:25:44.735Z,97772.80
2022-09-28T20:28:17.723Z,97771.05
2022-09-28T20:30:50.636Z,97779.73
2022-09-28T20:33:28.924Z,97778.05
2022-09-28T20:35:59.460Z,97790.19
2022-09-28T20:38:32.495Z,97784.95
2022-09-28T20:41:06.231Z,97787.61
2022-09-28T20:43:40.525Z,97798.91
2022-09-28T20:46:14.636Z,97800.70
2022-09-28T20:48:49.479Z,97797.23
2022-09-28T20:51:23.333Z,97810.24
2022-09-28T20:53:57.712Z,97792.98
2022-09-28T20:56:33.812Z,97811.97
2022-09-28T20:59:08.595Z,97811.08
2022-09-28T21:01:42.090Z,97821.50
2022-09-28T21:04:15.592Z,97819.75
2022-09-28T21:06:48.911Z,97824.06
2022-09-28T21:09:21.950Z,97817.06
2022-09-28T21:11:55.196Z,97820.52
2022-09-28T21:14:29.881Z,97822.30
2022-09-28T21:17:02.736Z,97826.64
2022-09-28T21:19:35.709Z,97823.13
2022-09-28T21:22:08.722Z,97822.28
2022-09-28T21:24:41.779Z,97821.37
2022-09-28T21:27:14.742Z,97819.60
2022-09-28T21:29:47.712Z,97817.02
2022-09-28T21:32:24.279Z,97820.50
2022-09-28T21:34:58.423Z,97821.37
2022-09-28T21:37:31.348Z,97821.37
2022-09-28T21:40:06.616Z,97824.84
2022-09-28T21:42:40.700Z,97824.84
2022-09-28T21:45:13.780Z,97824.84
2022-09-28T21:47:50.093Z,97824.84
2022-09-28T21:50:25.903Z,97826.59
2022-09-28T21:53:06.448Z,97830.08
2022-09-28T21:55:40.177Z,97817.06
2022-09-28T21:58:13.130Z,97824.86
2022-09-28T22:00:46.047Z,97829.25
2022-09-28T22:03:18.867Z,97828.34
2022-09-28T22:05:53.879Z,97831.86
2022-09-28T22:08:26.918Z,97830.16
2022-09-28T22:11:05.861Z,97828.45
2022-09-28T22:13:41.468Z,97835.38
2022-09-28T22:16:15.633Z,97835.38
2022-09-28T22:18:49.138Z,97845.81
2022-09-28T22:21:23.972Z,97845.81
2022-09-28T22:24:01.987Z,97844.96
2022-09-28T22:26:37.224Z,97857.14
2022-09-28T22:29:11.485Z,97854.55
2022-09-28T22:31:44.352Z,97861.52
2022-09-28T22:34:17.304Z,97858.94
2022-09-28T22:36:50.206Z,97858.11
2022-09-28T22:39:23.014Z,97856.38
2022-09-28T22:41:55.869Z,97841.61
2022-09-28T22:44:28.777Z,97851.16
2022-09-28T22:47:02.191Z,97846.81
2022-09-28T22:49:35.310Z,97845.08
2022-09-28T22:52:08.897Z,97838.13
2022-09-28T22:54:41.703Z,97847.68
2022-09-28T22:57:17.309Z,97849.41
2022-09-28T22:59:50.129Z,97855.50
2022-09-28T23:02:23.060Z,97843.37
2022-09-28T23:04:55.945Z,97850.30
2022-09-28T23:07:28.765Z,97850.34
2022-09-28T23:10:01.591Z,97858.17
2022-09-28T23:12:47.899Z,97851.22
2022-09-28T23:15:31.733Z,97858.19
2022-09-28T23:18:10.653Z,97865.13
2022-09-28T23:20:45.011Z,97861.72
2022-09-28T23:23:18.003Z,97851.31
2022-09-28T23:25:51.250Z,97858.25
2022-09-28T23:28:26.315Z,97853.06
2022-09-28T23:31:02.103Z,97849.59
2022-09-28T23:33:34.977Z,97855.62
2022-09-28T23:36:09.399Z,97860.01
2022-09-28T23:38:42.199Z,97855.67
2022-09-28T23:41:15.065Z,97855.69
2022-09-28T23:43:47.944Z,97858.32
2022-09-28T23:46:21.427Z,97858.32
2022-09-28T23:48:54.828Z,97850.50
2022-09-28T23:51:27.728Z,97866.97
2022-09-28T23:54:02.295Z,97852.20
2022-09-28T23:56:35.516Z,97864.38
2022-09-28T23:59:08.449Z,97870.47
